sensor_id;sensor_type;location;lat;lon;timestamp;P1;durP1;ratioP1;P2;durP2;ratioP2
64966;SDS011;51710;38.732;-121.358;2022-11-09T00:00:38;0.20;;;0.20;;
64966;SDS011;51710;38.732;-121.358;2022-11-09T00:03:05;0.50;;;0.20;;
64966;SDS011;51710;38.732;-121.358;2022-11-09T00:05:32;0.63;;;0.20;;
64966;SDS011;51710;38.732;-121.358;2022-11-09T00:07:58;0.63;;;0.30;;
64966;SDS011;51710;38.732;-121.358;2022-11-09T00:10:25;0.40;;;0.30;;
64966;SDS011;51710;38.732;-121.358;2022-11-09T00:12:51;0.45;;;0.22;;
64966;SDS011;51710;38.732;-121.358;2022-11-09T00:15:18;0.17;;;0.17;;
64966;SDS011;51710;38.732;-121.358;2022-11-09T00:17:44;0.30;;;0.30;;
64966;SDS011;51710;38.732;-121.358;2022-11-09T00:20:11;2.13;;;0.30;;
64966;SDS011;51710;38.732;-121.358;2022-11-09T00:22:38;0.30;;;0.25;;
64966;SDS011;51710;38.732;-121.358;2022-11-09T00:25:04;0.13;;;0.13;;
64966;SDS011;51710;38.732;-121.358;2022-11-09T00:27:31;0.50;;;0.50;;
64966;SDS011;51710;38.732;-121.358;2022-11-09T00:29:57;0.20;;;0.20;;
64966;SDS011;51710;38.732;-121.358;2022-11-09T00:32:24;0.40;;;0.30;;
64966;SDS011;51710;38.732;-121.358;2022-11-09T00:34:50;0.20;;;0.20;;
64966;SDS011;51710;38.732;-121.358;2022-11-09T00:37:16;0.30;;;0.20;;
64966;SDS011;51710;38.732;-121.358;2022-11-09T00:39:43;0.30;;;0.22;;
64966;SDS011;51710;38.732;-121.358;2022-11-09T00:42:09;0.20;;;0.20;;
64966;SDS011;51710;38.732;-121.358;2022-11-09T00:44:36;0.28;;;0.22;;
64966;SDS011;51710;38.732;-121.358;2022-11-09T00:47:02;0.30;;;0.28;;
64966;SDS011;51710;38.732;-121.358;2022-11-09T00:49:28;1.15;;;0.70;;
64966;SDS011;51710;38.732;-121.358;2022-11-09T00:51:55;0.73;;;0.43;;
64966;SDS011;51710;38.732;-121.358;2022-11-09T00:54:21;0.52;;;0.40;;
64966;SDS011;51710;38.732;-121.358;2022-11-09T00:56:48;1.17;;;0.30;;
64966;SDS011;51710;38.732;-121.358;2022-11-09T00:59:14;3.28;;;0.52;;
64966;SDS011;51710;38.732;-121.358;2022-11-09T01:01:40;0.63;;;0.32;;
64966;SDS011;51710;38.732;-121.358;2022-11-09T01:04:07;0.38;;;0.32;;
64966;SDS011;51710;38.732;-121.358;2022-11-09T01:06:33;3.60;;;0.50;;
64966;SDS011;51710;38.732;-121.358;2022-11-09T01:08:59;1.05;;;0.50;;
64966;SDS011;51710;38.732;-121.358;2022-11-09T01:11:26;1.55;;;0.50;;
64966;SDS011;51710;38.732;-121.358;2022-11-09T01:13:53;1.13;;;0.40;;
64966;SDS011;51710;38.732;-121.358;2022-11-09T01:16:20;0.73;;;0.50;;
64966;SDS011;51710;38.732;-121.358;2022-11-09T01:18:51;1.00;;;0.40;;
64966;SDS011;51710;38.732;-121.358;2022-11-09T01:21:18;1.38;;;0.50;;
64966;SDS011;51710;38.732;-121.358;2022-11-09T01:23:45;2.25;;;0.40;;
64966;SDS011;51710;38.732;-121.358;2022-11-09T01:26:12;0.43;;;0.35;;
64966;SDS011;51710;38.732;-121.358;2022-11-09T01:28:40;0.60;;;0.30;;
64966;SDS011;51710;38.732;-121.358;2022-11-09T01:31:12;1.23;;;0.60;;
64966;SDS011;51710;38.732;-121.358;2022-11-09T01:33:40;0.45;;;0.30;;
64966;SDS011;51710;38.732;-121.358;2022-11-09T01:36:08;1.80;;;0.40;;
64966;SDS011;51710;38.732;-121.358;2022-11-09T01:38:37;0.82;;;0.30;;
64966;SDS011;51710;38.732;-121.358;2022-11-09T01:41:04;0.80;;;0.40;;
64966;SDS011;51710;38.732;-121.358;2022-11-09T01:43:32;1.10;;;0.40;;
64966;SDS011;51710;38.732;-121.358;2022-11-09T01:48:59;1.40;;;0.57;;
64966;SDS011;51710;38.732;-121.358;2022-11-09T01:51:49;0.77;;;0.60;;
64966;SDS011;51710;38.732;-121.358;2022-11-09T01:54:26;0.65;;;0.45;;
64966;SDS011;51710;38.732;-121.358;2022-11-09T01:56:57;0.93;;;0.40;;
64966;SDS011;51710;38.732;-121.358;2022-11-09T01:59:28;0.30;;;0.30;;
64966;SDS011;51710;38.732;-121.358;2022-11-09T02:01:58;1.65;;;0.52;;
64966;SDS011;51710;38.732;-121.358;2022-11-09T02:04:26;0.73;;;0.40;;
64966;SDS011;51710;38.732;-121.358;2022-11-09T02:06:57;0.40;;;0.30;;
64966;SDS011;51710;38.732;-121.358;2022-11-09T02:09:30;1.35;;;0.50;;
64966;SDS011;51710;38.732;-121.358;2022-11-09T02:12:05;0.82;;;0.52;;
64966;SDS011;51710;38.732;-121.358;2022-11-09T02:14:32;0.77;;;0.45;;
64966;SDS011;51710;38.732;-121.358;2022-11-09T02:17:01;0.30;;;0.30;;
64966;SDS011;51710;38.732;-121.358;2022-11-09T02:19:27;0.30;;;0.30;;
64966;SDS011;51710;38.732;-121.358;2022-11-09T02:21:54;1.42;;;0.65;;
64966;SDS011;51710;38.732;-121.358;2022-11-09T02:24:21;1.23;;;0.63;;
64966;SDS011;51710;38.732;-121.358;2022-11-09T02:26:48;1.15;;;0.50;;
64966;SDS011;51710;38.732;-121.358;2022-11-09T02:29:21;1.27;;;0.70;;
64966;SDS011;51710;38.732;-121.358;2022-11-09T02:31:52;2.30;;;0.68;;
64966;SDS011;51710;38.732;-121.358;2022-11-09T02:34:25;2.35;;;0.80;;
64966;SDS011;51710;38.732;-121.358;2022-11-09T02:36:53;0.80;;;0.50;;
64966;SDS011;51710;38.732;-121.358;2022-11-09T02:39:20;2.75;;;1.20;;
64966;SDS011;51710;38.732;-121.358;2022-11-09T02:41:50;1.65;;;0.57;;
64966;SDS011;51710;38.732;-121.358;2022-11-09T02:44:40;1.13;;;0.70;;
64966;SDS011;51710;38.732;-121.358;2022-11-09T02:47:10;2.20;;;0.70;;
64966;SDS011;51710;38.732;-121.358;2022-11-09T02:49:37;1.33;;;0.63;;
64966;SDS011;51710;38.732;-121.358;2022-11-09T02:52:03;1.40;;;0.80;;
64966;SDS011;51710;38.732;-121.358;2022-11-09T02:54:30;0.63;;;0.40;;
64966;SDS011;51710;38.732;-121.358;2022-11-09T02:56:56;2.25;;;0.50;;
64966;SDS011;51710;38.732;-121.358;2022-11-09T02:59:23;2.20;;;0.80;;
64966;SDS011;51710;38.732;-121.358;2022-11-09T03:01:49;1.58;;;0.50;;
64966;SDS011;51710;38.732;-121.358;2022-11-09T03:04:15;1.85;;;0.57;;
64966;SDS011;51710;38.732;-121.358;2022-11-09T03:06:42;0.60;;;0.40;;
64966;SDS011;51710;38.732;-121.358;2022-11-09T03:09:09;1.63;;;0.70;;
64966;SDS011;51710;38.732;-121.358;2022-11-09T03:11:37;1.52;;;0.60;;
64966;SDS011;51710;38.732;-121.358;2022-11-09T03:14:05;1.83;;;0.60;;
64966;SDS011;51710;38.732;-121.358;2022-11-09T03:16:32;1.90;;;0.70;;
64966;SDS011;51710;38.732;-121.358;2022-11-09T03:18:58;2.67;;;0.60;;
64966;SDS011;51710;38.732;-121.358;2022-11-09T03:21:25;4.05;;;0.85;;
64966;SDS011;51710;38.732;-121.358;2022-11-09T03:23:52;1.80;;;0.77;;
64966;SDS011;51710;38.732;-121.358;2022-11-09T03:26:19;2.20;;;0.60;;
64966;SDS011;51710;38.732;-121.358;2022-11-09T03:28:46;1.02;;;0.50;;
64966;SDS011;51710;38.732;-121.358;2022-11-09T03:31:15;0.75;;;0.60;;
64966;SDS011;51710;38.732;-121.358;2022-11-09T03:33:42;2.70;;;0.65;;
64966;SDS011;51710;38.732;-121.358;2022-11-09T03:36:08;1.00;;;0.70;;
64966;SDS011;51710;38.732;-121.358;2022-11-09T03:38:35;1.02;;;0.60;;
64966;SDS011;51710;38.732;-121.358;2022-11-09T03:41:01;2.10;;;1.10;;
64966;SDS011;51710;38.732;-121.358;2022-11-09T03:43:28;1.95;;;0.80;;
64966;SDS011;51710;38.732;-121.358;2022-11-09T03:45:54;1.60;;;0.70;;
64966;SDS011;51710;38.732;-121.358;2022-11-09T03:48:21;3.50;;;0.80;;
64966;SDS011;51710;38.732;-121.358;2022-11-09T03:50:48;2.10;;;0.80;;
64966;SDS011;51710;38.732;-121.358;2022-11-09T03:53:14;2.58;;;1.00;;
64966;SDS011;51710;38.732;-121.358;2022-11-09T03:55:41;1.10;;;0.60;;
64966;SDS011;51710;38.732;-121.358;2022-11-09T03:58:08;0.75;;;0.60;;
64966;SDS011;51710;38.732;-121.358;2022-11-09T04:00:37;3.90;;;0.90;;
64966;SDS011;51710;38.732;-121.358;2022-11-09T04:03:03;2.17;;;1.10;;
64966;SDS011;51710;38.732;-121.358;2022-11-09T04:05:30;3.83;;;1.80;;
64966;SDS011;51710;38.732;-121.358;2022-11-09T04:07:56;2.97;;;1.25;;
64966;SDS011;51710;38.732;-121.358;2022-11-09T04:10:24;2.33;;;1.00;;
64966;SDS011;51710;38.732;-121.358;2022-11-09T04:12:51;2.13;;;1.05;;
64966;SDS011;51710;38.732;-121.358;2022-11-09T04:15:17;2.65;;;1.20;;
64966;SDS011;51710;38.732;-121.358;2022-11-09T04:17:44;4.05;;;1.30;;
64966;SDS011;51710;38.732;-121.358;2022-11-09T04:20:18;2.78;;;1.08;;
64966;SDS011;51710;38.732;-121.358;2022-11-09T04:22:45;1.63;;;1.00;;
64966;SDS011;51710;38.732;-121.358;2022-11-09T04:25:22;2.92;;;1.02;;
64966;SDS011;51710;38.732;-121.358;2022-11-09T04:27:56;2.15;;;1.02;;
64966;SDS011;51710;38.732;-121.358;2022-11-09T04:30:23;2.90;;;1.17;;
64966;SDS011;51710;38.732;-121.358;2022-11-09T04:32:54;1.85;;;0.80;;
64966;SDS011;51710;38.732;-121.358;2022-11-09T04:35:22;1.92;;;0.80;;
64966;SDS011;51710;38.732;-121.358;2022-11-09T04:37:55;4.55;;;1.17;;
64966;SDS011;51710;38.732;-121.358;2022-11-09T04:40:24;3.25;;;1.30;;
64966;SDS011;51710;38.732;-121.358;2022-11-09T04:42:52;1.38;;;0.80;;
64966;SDS011;51710;38.732;-121.358;2022-11-09T04:45:19;2.00;;;1.00;;
64966;SDS011;51710;38.732;-121.358;2022-11-09T04:47:46;2.83;;;1.10;;
64966;SDS011;51710;38.732;-121.358;2022-11-09T04:50:13;4.75;;;1.90;;
64966;SDS011;51710;38.732;-121.358;2022-11-09T04:52:39;5.20;;;1.88;;
64966;SDS011;51710;38.732;-121.358;2022-11-09T04:55:06;5.00;;;2.30;;
64966;SDS011;51710;38.732;-121.358;2022-11-09T04:57:33;4.63;;;1.67;;
64966;SDS011;51710;38.732;-121.358;2022-11-09T04:59:59;6.80;;;1.95;;
64966;SDS011;51710;38.732;-121.358;2022-11-09T05:02:25;4.72;;;2.38;;
64966;SDS011;51710;38.732;-121.358;2022-11-09T05:04:52;5.50;;;3.03;;
64966;SDS011;51710;38.732;-121.358;2022-11-09T05:07:18;5.13;;;2.10;;
64966;SDS011;51710;38.732;-121.358;2022-11-09T05:09:45;7.25;;;2.35;;
64966;SDS011;51710;38.732;-121.358;2022-11-09T05:12:11;8.15;;;2.40;;
64966;SDS011;51710;38.732;-121.358;2022-11-09T05:14:38;4.88;;;2.63;;
64966;SDS011;51710;38.732;-121.358;2022-11-09T05:17:04;3.28;;;1.65;;
64966;SDS011;51710;38.732;-121.358;2022-11-09T05:19:33;6.13;;;2.38;;
64966;SDS011;51710;38.732;-121.358;2022-11-09T05:21:59;4.65;;;2.20;;
64966;SDS011;51710;38.732;-121.358;2022-11-09T05:24:46;3.83;;;1.70;;
64966;SDS011;51710;38.732;-121.358;2022-11-09T05:27:12;6.38;;;2.15;;
64966;SDS011;51710;38.732;-121.358;2022-11-09T05:29:38;2.72;;;1.73;;
64966;SDS011;51710;38.732;-121.358;2022-11-09T05:32:05;3.78;;;1.60;;
64966;SDS011;51710;38.732;-121.358;2022-11-09T05:34:31;4.63;;;1.70;;
64966;SDS011;51710;38.732;-121.358;2022-11-09T05:36:58;4.35;;;2.05;;
64966;SDS011;51710;38.732;-121.358;2022-11-09T05:39:24;3.40;;;1.60;;
64966;SDS011;51710;38.732;-121.358;2022-11-09T05:41:50;3.13;;;1.73;;
64966;SDS011;51710;38.732;-121.358;2022-11-09T05:44:17;2.67;;;1.40;;
64966;SDS011;51710;38.732;-121.358;2022-11-09T05:46:43;3.15;;;1.77;;
64966;SDS011;51710;38.732;-121.358;2022-11-09T05:49:09;4.85;;;1.50;;
64966;SDS011;51710;38.732;-121.358;2022-11-09T05:51:35;6.90;;;1.85;;
64966;SDS011;51710;38.732;-121.358;2022-11-09T05:54:02;6.63;;;2.05;;
64966;SDS011;51710;38.732;-121.358;2022-11-09T05:56:28;5.55;;;1.95;;
64966;SDS011;51710;38.732;-121.358;2022-11-09T05:58:55;2.40;;;1.35;;
64966;SDS011;51710;38.732;-121.358;2022-11-09T06:01:22;3.38;;;1.40;;
64966;SDS011;51710;38.732;-121.358;2022-11-09T06:03:48;3.75;;;1.40;;
64966;SDS011;51710;38.732;-121.358;2022-11-09T06:06:15;2.30;;;1.30;;
64966;SDS011;51710;38.732;-121.358;2022-11-09T06:08:42;2.90;;;1.60;;
64966;SDS011;51710;38.732;-121.358;2022-11-09T06:11:09;4.38;;;1.70;;
64966;SDS011;51710;38.732;-121.358;2022-11-09T06:13:36;3.75;;;1.50;;
64966;SDS011;51710;38.732;-121.358;2022-11-09T06:16:04;3.60;;;1.30;;
64966;SDS011;51710;38.732;-121.358;2022-11-09T06:18:31;4.25;;;1.80;;
64966;SDS011;51710;38.732;-121.358;2022-11-09T06:21:00;3.17;;;1.27;;
64966;SDS011;51710;38.732;-121.358;2022-11-09T06:23:28;2.63;;;1.13;;
64966;SDS011;51710;38.732;-121.358;2022-11-09T06:25:59;2.80;;;1.20;;
64966;SDS011;51710;38.732;-121.358;2022-11-09T06:28:27;2.85;;;1.33;;
64966;SDS011;51710;38.732;-121.358;2022-11-09T06:30:57;2.28;;;1.10;;
64966;SDS011;51710;38.732;-121.358;2022-11-09T06:33:25;2.78;;;1.20;;
64966;SDS011;51710;38.732;-121.358;2022-11-09T06:35:52;4.45;;;1.58;;
64966;SDS011;51710;38.732;-121.358;2022-11-09T06:38:18;3.85;;;1.10;;
64966;SDS011;51710;38.732;-121.358;2022-11-09T06:40:44;2.17;;;1.00;;
64966;SDS011;51710;38.732;-121.358;2022-11-09T06:43:11;1.73;;;0.90;;
64966;SDS011;51710;38.732;-121.358;2022-11-09T06:45:37;2.67;;;1.20;;
64966;SDS011;51710;38.732;-121.358;2022-11-09T06:48:04;2.60;;;0.95;;
64966;SDS011;51710;38.732;-121.358;2022-11-09T06:50:31;4.95;;;1.10;;
64966;SDS011;51710;38.732;-121.358;2022-11-09T06:52:59;2.05;;;1.02;;
64966;SDS011;51710;38.732;-121.358;2022-11-09T06:55:28;3.00;;;1.00;;
64966;SDS011;51710;38.732;-121.358;2022-11-09T06:57:55;2.47;;;0.98;;
64966;SDS011;51710;38.732;-121.358;2022-11-09T07:00:26;4.15;;;1.00;;
64966;SDS011;51710;38.732;-121.358;2022-11-09T07:02:52;1.85;;;0.82;;
64966;SDS011;51710;38.732;-121.358;2022-11-09T07:05:19;2.53;;;0.70;;
64966;SDS011;51710;38.732;-121.358;2022-11-09T07:07:45;2.70;;;0.90;;
64966;SDS011;51710;38.732;-121.358;2022-11-09T07:10:12;1.73;;;0.70;;
64966;SDS011;51710;38.732;-121.358;2022-11-09T07:12:38;2.38;;;0.85;;
64966;SDS011;51710;38.732;-121.358;2022-11-09T07:15:05;1.50;;;0.77;;
64966;SDS011;51710;38.732;-121.358;2022-11-09T07:17:32;1.55;;;0.88;;
64966;SDS011;51710;38.732;-121.358;2022-11-09T07:19:59;2.28;;;0.60;;
64966;SDS011;51710;38.732;-121.358;2022-11-09T07:22:28;1.13;;;0.70;;
64966;SDS011;51710;38.732;-121.358;2022-11-09T07:24:55;1.35;;;0.80;;
64966;SDS011;51710;38.732;-121.358;2022-11-09T07:27:22;4.22;;;0.90;;
64966;SDS011;51710;38.732;-121.358;2022-11-09T07:29:48;1.40;;;0.65;;
64966;SDS011;51710;38.732;-121.358;2022-11-09T07:32:14;1.40;;;0.70;;
64966;SDS011;51710;38.732;-121.358;2022-11-09T07:34:41;1.77;;;0.75;;
64966;SDS011;51710;38.732;-121.358;2022-11-09T07:37:07;1.05;;;0.60;;
64966;SDS011;51710;38.732;-121.358;2022-11-09T07:39:34;3.40;;;0.80;;
64966;SDS011;51710;38.732;-121.358;2022-11-09T07:42:00;1.00;;;0.60;;
64966;SDS011;51710;38.732;-121.358;2022-11-09T07:44:26;1.10;;;0.50;;
64966;SDS011;51710;38.732;-121.358;2022-11-09T07:46:53;0.52;;;0.50;;
64966;SDS011;51710;38.732;-121.358;2022-11-09T07:49:19;4.70;;;0.82;;
64966;SDS011;51710;38.732;-121.358;2022-11-09T07:51:45;0.43;;;0.40;;
64966;SDS011;51710;38.732;-121.358;2022-11-09T07:54:15;1.00;;;0.50;;
64966;SDS011;51710;38.732;-121.358;2022-11-09T07:56:41;2.30;;;0.60;;
64966;SDS011;51710;38.732;-121.358;2022-11-09T07:59:08;1.50;;;0.80;;
64966;SDS011;51710;38.732;-121.358;2022-11-09T08:01:34;1.58;;;0.75;;
64966;SDS011;51710;38.732;-121.358;2022-11-09T08:04:01;0.75;;;0.60;;
64966;SDS011;51710;38.732;-121.358;2022-11-09T08:06:27;1.52;;;0.90;;
64966;SDS011;51710;38.732;-121.358;2022-11-09T08:08:54;0.85;;;0.50;;
64966;SDS011;51710;38.732;-121.358;2022-11-09T08:11:22;1.55;;;0.63;;
64966;SDS011;51710;38.732;-121.358;2022-11-09T08:13:49;0.82;;;0.65;;
64966;SDS011;51710;38.732;-121.358;2022-11-09T08:16:16;2.35;;;0.60;;
64966;SDS011;51710;38.732;-121.358;2022-11-09T08:18:42;1.67;;;0.60;;
64966;SDS011;51710;38.732;-121.358;2022-11-09T08:21:08;0.90;;;0.55;;
64966;SDS011;51710;38.732;-121.358;2022-11-09T08:23:35;1.67;;;0.60;;
64966;SDS011;51710;38.732;-121.358;2022-11-09T08:26:02;2.45;;;0.50;;
64966;SDS011;51710;38.732;-121.358;2022-11-09T08:28:30;2.15;;;0.68;;
64966;SDS011;51710;38.732;-121.358;2022-11-09T08:31:01;1.20;;;0.60;;
64966;SDS011;51710;38.732;-121.358;2022-11-09T08:33:30;1.60;;;0.70;;
64966;SDS011;51710;38.732;-121.358;2022-11-09T08:35:58;1.30;;;0.60;;
64966;SDS011;51710;38.732;-121.358;2022-11-09T08:38:25;0.63;;;0.50;;
64966;SDS011;51710;38.732;-121.358;2022-11-09T08:40:58;1.08;;;0.60;;
64966;SDS011;51710;38.732;-121.358;2022-11-09T08:43:24;0.40;;;0.40;;
64966;SDS011;51710;38.732;-121.358;2022-11-09T08:45:51;0.32;;;0.32;;
64966;SDS011;51710;38.732;-121.358;2022-11-09T08:48:18;1.13;;;0.50;;
64966;SDS011;51710;38.732;-121.358;2022-11-09T08:50:44;0.85;;;0.40;;
64966;SDS011;51710;38.732;-121.358;2022-11-09T08:53:10;0.52;;;0.40;;
64966;SDS011;51710;38.732;-121.358;2022-11-09T08:55:37;0.90;;;0.52;;
64966;SDS011;51710;38.732;-121.358;2022-11-09T08:58:03;1.73;;;0.50;;
64966;SDS011;51710;38.732;-121.358;2022-11-09T09:00:30;2.28;;;0.57;;
64966;SDS011;51710;38.732;-121.358;2022-11-09T09:02:56;1.02;;;0.65;;
64966;SDS011;51710;38.732;-121.358;2022-11-09T09:05:23;1.55;;;0.52;;
64966;SDS011;51710;38.732;-121.358;2022-11-09T09:07:50;1.38;;;0.55;;
64966;SDS011;51710;38.732;-121.358;2022-11-09T09:10:17;0.70;;;0.40;;
64966;SDS011;51710;38.732;-121.358;2022-11-09T09:12:43;0.82;;;0.50;;
64966;SDS011;51710;38.732;-121.358;2022-11-09T09:15:09;0.40;;;0.40;;
64966;SDS011;51710;38.732;-121.358;2022-11-09T09:17:36;0.90;;;0.50;;
64966;SDS011;51710;38.732;-121.358;2022-11-09T09:20:02;1.08;;;0.50;;
64966;SDS011;51710;38.732;-121.358;2022-11-09T09:22:29;0.43;;;0.30;;
64966;SDS011;51710;38.732;-121.358;2022-11-09T09:24:57;2.88;;;0.50;;
64966;SDS011;51710;38.732;-121.358;2022-11-09T09:27:24;0.85;;;0.43;;
64966;SDS011;51710;38.732;-121.358;2022-11-09T09:29:50;0.35;;;0.35;;
64966;SDS011;51710;38.732;-121.358;2022-11-09T09:32:16;1.30;;;0.57;;
64966;SDS011;51710;38.732;-121.358;2022-11-09T09:34:43;1.75;;;0.50;;
64966;SDS011;51710;38.732;-121.358;2022-11-09T09:37:09;0.80;;;0.55;;
64966;SDS011;51710;38.732;-121.358;2022-11-09T09:39:36;0.40;;;0.30;;
64966;SDS011;51710;38.732;-121.358;2022-11-09T09:45:03;0.35;;;0.35;;
64966;SDS011;51710;38.732;-121.358;2022-11-09T09:50:25;0.40;;;0.30;;
64966;SDS011;51710;38.732;-121.358;2022-11-09T09:55:34;0.43;;;0.40;;
64966;SDS011;51710;38.732;-121.358;2022-11-09T09:58:05;0.52;;;0.32;;
64966;SDS011;51710;38.732;-121.358;2022-11-09T10:00:37;1.02;;;0.40;;
64966;SDS011;51710;38.732;-121.358;2022-11-09T10:03:08;0.50;;;0.30;;
64966;SDS011;51710;38.732;-121.358;2022-11-09T10:08:52;0.45;;;0.35;;
64966;SDS011;51710;38.732;-121.358;2022-11-09T10:22:22;1.23;;;0.63;;
64966;SDS011;51710;38.732;-121.358;2022-11-09T10:25:00;1.52;;;0.70;;
64966;SDS011;51710;38.732;-121.358;2022-11-09T10:27:35;0.93;;;0.63;;
64966;SDS011;51710;38.732;-121.358;2022-11-09T10:30:12;2.08;;;0.82;;
64966;SDS011;51710;38.732;-121.358;2022-11-09T10:32:45;1.77;;;1.13;;
64966;SDS011;51710;38.732;-121.358;2022-11-09T10:35:28;0.90;;;0.77;;
64966;SDS011;51710;38.732;-121.358;2022-11-09T10:38:26;0.75;;;0.50;;
64966;SDS011;51710;38.732;-121.358;2022-11-09T10:41:10;0.77;;;0.50;;
64966;SDS011;51710;38.732;-121.358;2022-11-09T10:43:56;0.82;;;0.50;;
64966;SDS011;51710;38.732;-121.358;2022-11-09T10:46:22;2.13;;;0.60;;
64966;SDS011;51710;38.732;-121.358;2022-11-09T10:48:50;1.17;;;0.50;;
64966;SDS011;51710;38.732;-121.358;2022-11-09T10:51:31;0.50;;;0.40;;
64966;SDS011;51710;38.732;-121.358;2022-11-09T10:54:31;2.05;;;0.43;;
64966;SDS011;51710;38.732;-121.358;2022-11-09T11:04:52;0.70;;;0.50;;
64966;SDS011;51710;38.732;-121.358;2022-11-09T11:07:43;1.00;;;0.60;;
64966;SDS011;51710;38.732;-121.358;2022-11-09T11:12:40;0.65;;;0.60;;
64966;SDS011;51710;38.732;-121.358;2022-11-09T11:15:20;1.15;;;0.55;;
64966;SDS011;51710;38.732;-121.358;2022-11-09T11:17:48;1.85;;;0.70;;
64966;SDS011;51710;38.732;-121.358;2022-11-09T11:23:00;0.75;;;0.65;;
64966;SDS011;51710;38.732;-121.358;2022-11-09T11:25:57;1.70;;;0.70;;
64966;SDS011;51710;38.732;-121.358;2022-11-09T11:28:44;1.38;;;0.50;;
64966;SDS011;51710;38.732;-121.358;2022-11-09T11:31:15;1.55;;;0.77;;
64966;SDS011;51710;38.732;-121.358;2022-11-09T11:33:43;3.70;;;0.80;;
64966;SDS011;51710;38.732;-121.358;2022-11-09T11:39:19;2.55;;;0.68;;
64966;SDS011;51710;38.732;-121.358;2022-11-09T11:45:00;2.17;;;0.70;;
64966;SDS011;51710;38.732;-121.358;2022-11-09T11:50:27;1.45;;;0.68;;
64966;SDS011;51710;38.732;-121.358;2022-11-09T12:01:56;1.60;;;0.73;;
64966;SDS011;51710;38.732;-121.358;2022-11-09T12:21:26;1.50;;;0.70;;
64966;SDS011;51710;38.732;-121.358;2022-11-09T12:29:38;1.83;;;0.50;;
64966;SDS011;51710;38.732;-121.358;2022-11-09T12:32:23;1.88;;;0.60;;
64966;SDS011;51710;38.732;-121.358;2022-11-09T12:37:39;2.08;;;0.50;;
64966;SDS011;51710;38.732;-121.358;2022-11-09T12:40:31;1.45;;;0.70;;
64966;SDS011;51710;38.732;-121.358;2022-11-09T12:43:07;0.65;;;0.50;;
64966;SDS011;51710;38.732;-121.358;2022-11-09T12:45:48;1.35;;;0.50;;
64966;SDS011;51710;38.732;-121.358;2022-11-09T12:48:22;1.42;;;0.60;;
64966;SDS011;51710;38.732;-121.358;2022-11-09T12:50:50;1.30;;;0.57;;
64966;SDS011;51710;38.732;-121.358;2022-11-09T12:53:18;0.93;;;0.60;;
64966;SDS011;51710;38.732;-121.358;2022-11-09T12:58:41;0.70;;;0.50;;
64966;SDS011;51710;38.732;-121.358;2022-11-09T13:01:13;2.00;;;0.52;;
64966;SDS011;51710;38.732;-121.358;2022-11-09T13:03:59;1.63;;;0.68;;
64966;SDS011;51710;38.732;-121.358;2022-11-09T13:06:30;0.57;;;0.50;;
64966;SDS011;51710;38.732;-121.358;2022-11-09T13:16:52;1.40;;;0.73;;
64966;SDS011;51710;38.732;-121.358;2022-11-09T13:25:00;1.00;;;0.60;;
64966;SDS011;51710;38.732;-121.358;2022-11-09T13:27:41;2.05;;;0.60;;
64966;SDS011;51710;38.732;-121.358;2022-11-09T13:38:22;0.43;;;0.43;;
64966;SDS011;51710;38.732;-121.358;2022-11-09T13:40:51;2.03;;;0.70;;
64966;SDS011;51710;38.732;-121.358;2022-11-09T13:46:03;5.55;;;1.15;;
64966;SDS011;51710;38.732;-121.358;2022-11-09T13:48:51;1.55;;;0.57;;
64966;SDS011;51710;38.732;-121.358;2022-11-09T13:51:21;1.55;;;0.60;;
64966;SDS011;51710;38.732;-121.358;2022-11-09T13:54:35;1.08;;;0.60;;
64966;SDS011;51710;38.732;-121.358;2022-11-09T13:56:56;1.77;;;1.15;;
64966;SDS011;51710;38.732;-121.358;2022-11-09T13:59:31;1.60;;;0.63;;
64966;SDS011;51710;38.732;-121.358;2022-11-09T14:04:59;0.80;;;0.50;;
64966;SDS011;51710;38.732;-121.358;2022-11-09T14:07:27;1.48;;;1.05;;
64966;SDS011;51710;38.732;-121.358;2022-11-09T14:20:53;1.65;;;0.63;;
64966;SDS011;51710;38.732;-121.358;2022-11-09T14:23:23;0.50;;;0.50;;
64966;SDS011;51710;38.732;-121.358;2022-11-09T14:25:54;1.17;;;0.77;;
64966;SDS011;51710;38.732;-121.358;2022-11-09T14:28:26;2.05;;;0.70;;
64966;SDS011;51710;38.732;-121.358;2022-11-09T14:30:54;1.05;;;0.55;;
64966;SDS011;51710;38.732;-121.358;2022-11-09T14:33:25;1.63;;;0.70;;
64966;SDS011;51710;38.732;-121.358;2022-11-09T14:35:54;0.85;;;0.52;;
64966;SDS011;51710;38.732;-121.358;2022-11-09T14:38:25;3.38;;;0.68;;
64966;SDS011;51710;38.732;-121.358;2022-11-09T14:40:58;2.08;;;0.63;;
64966;SDS011;51710;38.732;-121.358;2022-11-09T14:46:05;1.13;;;0.68;;
64966;SDS011;51710;38.732;-121.358;2022-11-09T14:48:39;1.70;;;1.33;;
64966;SDS011;51710;38.732;-121.358;2022-11-09T14:51:14;2.30;;;0.50;;
64966;SDS011;51710;38.732;-121.358;2022-11-09T14:53:40;3.05;;;0.60;;
64966;SDS011;51710;38.732;-121.358;2022-11-09T14:56:09;1.77;;;0.70;;
64966;SDS011;51710;38.732;-121.358;2022-11-09T14:58:39;0.98;;;0.70;;
64966;SDS011;51710;38.732;-121.358;2022-11-09T15:06:48;3.92;;;1.95;;
64966;SDS011;51710;38.732;-121.358;2022-11-09T15:09:18;1.58;;;0.80;;
64966;SDS011;51710;38.732;-121.358;2022-11-09T15:11:56;2.65;;;0.90;;
64966;SDS011;51710;38.732;-121.358;2022-11-09T15:14:25;0.63;;;0.63;;
64966;SDS011;51710;38.732;-121.358;2022-11-09T15:16:59;0.95;;;0.57;;
64966;SDS011;51710;38.732;-121.358;2022-11-09T15:19:32;1.30;;;0.60;;
64966;SDS011;51710;38.732;-121.358;2022-11-09T15:22:03;1.50;;;0.60;;
64966;SDS011;51710;38.732;-121.358;2022-11-09T15:24:43;3.22;;;0.80;;
64966;SDS011;51710;38.732;-121.358;2022-11-09T15:27:32;1.30;;;0.75;;
64966;SDS011;51710;38.732;-121.358;2022-11-09T15:30:00;1.60;;;0.60;;
64966;SDS011;51710;38.732;-121.358;2022-11-09T15:32:31;1.35;;;0.60;;
64966;SDS011;51710;38.732;-121.358;2022-11-09T15:34:59;1.33;;;0.80;;
64966;SDS011;51710;38.732;-121.358;2022-11-09T15:37:30;1.40;;;0.70;;
64966;SDS011;51710;38.732;-121.358;2022-11-09T15:40:13;2.65;;;0.68;;
64966;SDS011;51710;38.732;-121.358;2022-11-09T15:42:42;1.67;;;0.60;;
64966;SDS011;51710;38.732;-121.358;2022-11-09T15:45:12;2.92;;;0.57;;
64966;SDS011;51710;38.732;-121.358;2022-11-09T15:47:40;2.08;;;0.50;;
64966;SDS011;51710;38.732;-121.358;2022-11-09T15:50:20;2.45;;;0.60;;
64966;SDS011;51710;38.732;-121.358;2022-11-09T15:52:49;0.47;;;0.45;;
64966;SDS011;51710;38.732;-121.358;2022-11-09T15:55:17;1.10;;;0.60;;
64966;SDS011;51710;38.732;-121.358;2022-11-09T15:57:47;0.57;;;0.50;;
64966;SDS011;51710;38.732;-121.358;2022-11-09T16:00:15;0.90;;;0.45;;
64966;SDS011;51710;38.732;-121.358;2022-11-09T16:02:44;2.00;;;0.60;;
64966;SDS011;51710;38.732;-121.358;2022-11-09T16:05:10;1.33;;;0.57;;
64966;SDS011;51710;38.732;-121.358;2022-11-09T16:07:45;2.08;;;0.50;;
64966;SDS011;51710;38.732;-121.358;2022-11-09T16:10:13;0.75;;;0.68;;
64966;SDS011;51710;38.732;-121.358;2022-11-09T16:12:40;1.10;;;0.60;;
64966;SDS011;51710;38.732;-121.358;2022-11-09T16:15:06;2.88;;;0.50;;
64966;SDS011;51710;38.732;-121.358;2022-11-09T16:17:33;0.82;;;0.50;;
64966;SDS011;51710;38.732;-121.358;2022-11-09T16:20:00;1.02;;;0.50;;
64966;SDS011;51710;38.732;-121.358;2022-11-09T16:22:30;0.55;;;0.50;;
64966;SDS011;51710;38.732;-121.358;2022-11-09T16:24:59;0.88;;;0.55;;
64966;SDS011;51710;38.732;-121.358;2022-11-09T16:27:26;0.40;;;0.40;;
64966;SDS011;51710;38.732;-121.358;2022-11-09T16:29:53;0.75;;;0.40;;
64966;SDS011;51710;38.732;-121.358;2022-11-09T16:32:20;1.25;;;0.60;;